Time;durP1;ratioP1;P1;durP2;ratioP2;P2;SDS_P1;SDS_P2;PMS_P1;PMS_P2;Temp;Humidity;BMP_temperature;BMP_pressure;BME280_temperature;BME280_humidity;BME280_pressure;Samples;Min_cycle;Max_cycle;Signal;HPM_P1;HPM_P2
2023/12/06 00:01:10;;;;;;;2.33;1.33;;;;;;;4.40;100.00;96217.22;5076281;28;20202;-54
2023/12/06 00:03:37;;;;;;;1.80;1.30;;;;;;;4.40;100.00;96217.22;5075393;28;20214;-53
2023/12/06 00:06:04;;;;;;;2.40;1.47;;;;;;;4.40;100.00;96214.59;5076359;28;20206;-53
2023/12/06 00:08:35;;;;;;;1.30;1.13;;;;;;;4.39;100.00;96205.91;5074198;28;20651;-53
2023/12/06 00:11:01;;;;;;;2.77;1.43;;;;;;;4.39;100.00;96212.94;5076244;28;20206;-53
2023/12/06 00:13:28;;;;;;;2.77;1.10;;;;;;;4.49;100.00;96204.28;5075451;28;20206;-54
2023/12/06 00:15:54;;;;;;;2.50;1.23;;;;;;;4.57;100.00;96214.13;5075827;28;20228;-54
2023/12/06 00:18:21;;;;;;;1.70;1.27;;;;;;;4.49;100.00;96211.28;5078165;28;20236;-54
2023/12/06 00:20:48;;;;;;;2.00;1.17;;;;;;;4.48;100.00;96222.72;5081053;28;20599;-54
2023/12/06 00:23:14;;;;;;;1.93;1.00;;;;;;;4.45;100.00;96217.72;5075239;28;20631;-52
2023/12/06 00:25:42;;;;;;;1.03;0.83;;;;;;;4.37;100.00;96218.28;5075613;28;20206;-53
2023/12/06 00:28:09;;;;;;;2.60;1.87;;;;;;;4.35;100.00;96216.75;5075337;28;20290;-54
2023/12/06 00:30:36;;;;;;;1.63;1.30;;;;;;;4.38;100.00;96216.50;5075692;28;20211;-53
2023/12/06 00:33:04;;;;;;;1.27;0.80;;;;;;;4.49;100.00;96224.38;5075582;28;20210;-54
2023/12/06 00:35:31;;;;;;;2.13;1.27;;;;;;;4.65;100.00;96224.88;5075757;28;20260;-54
2023/12/06 00:37:58;;;;;;;2.70;1.60;;;;;;;4.60;100.00;96221.78;5075866;28;20214;-52
2023/12/06 00:40:25;;;;;;;6.07;1.73;;;;;;;4.60;100.00;96227.03;5075583;28;20299;-54
2023/12/06 00:42:54;;;;;;;1.73;1.37;;;;;;;4.68;100.00;96219.41;5064077;28;20290;-54
2023/12/06 00:45:21;;;;;;;3.37;1.53;;;;;;;4.69;100.00;96231.53;5076135;28;20217;-54
2023/12/06 00:47:48;;;;;;;2.40;1.20;;;;;;;4.64;100.00;96219.78;5067215;28;20297;-52
2023/12/06 00:50:15;;;;;;;3.03;1.80;;;;;;;4.62;100.00;96224.28;5071678;28;20207;-53
2023/12/06 00:52:41;;;;;;;1.93;1.30;;;;;;;4.65;100.00;96224.03;5075401;28;20230;-55
2023/12/06 00:55:09;;;;;;;1.93;1.30;;;;;;;4.63;100.00;96231.19;5075335;28;20208;-53
2023/12/06 00:57:36;;;;;;;1.37;1.27;;;;;;;4.53;100.00;96226.63;5075836;28;20203;-54
2023/12/06 01:00:05;;;;;;;3.50;1.40;;;;;;;4.54;100.00;96227.47;5077416;28;20286;-55
2023/12/06 01:02:36;;;;;;;1.67;0.97;;;;;;;4.46;100.00;96222.81;5077058;28;20325;-54
2023/12/06 01:05:02;;;;;;;2.20;0.87;;;;;;;4.49;100.00;96227.00;5094535;28;20213;-54
2023/12/06 01:07:29;;;;;;;3.63;1.40;;;;;;;4.44;100.00;96226.50;5082138;28;20525;-54
2023/12/06 01:09:56;;;;;;;2.10;1.20;;;;;;;4.47;100.00;96226.25;5073869;28;20234;-55
2023/12/06 01:12:22;;;;;;;2.77;1.30;;;;;;;4.56;100.00;96230.81;5079100;28;20545;-54
2023/12/06 01:14:49;;;;;;;1.77;1.20;;;;;;;4.54;100.00;96237.94;5076792;28;20627;-54
2023/12/06 01:17:17;;;;;;;1.87;0.90;;;;;;;4.51;100.00;96232.94;5076764;28;20222;-55
2023/12/06 01:19:43;;;;;;;1.93;1.30;;;;;;;4.47;100.00;96239.34;5075792;28;20202;-54
2023/12/06 01:22:10;;;;;;;3.37;1.00;;;;;;;4.43;100.00;96240.53;5075439;28;20220;-54
2023/12/06 01:24:37;;;;;;;2.23;1.13;;;;;;;4.44;100.00;96236.97;5076746;28;20293;-55
2023/12/06 01:27:05;;;;;;;3.23;1.30;;;;;;;4.42;100.00;96246.75;5085355;28;20202;-54
2023/12/06 01:29:32;;;;;;;1.57;0.97;;;;;;;4.54;100.00;96243.19;5079887;28;20205;-55
2023/12/06 01:31:58;;;;;;;2.67;1.10;;;;;;;4.52;100.00;96245.09;5082337;28;20623;-54
2023/12/06 01:34:29;;;;;;;1.23;1.00;;;;;;;4.49;100.00;96247.94;5074684;28;20212;-55
2023/12/06 01:36:56;;;;;;;4.30;1.10;;;;;;;4.51;100.00;96249.50;5075834;28;20218;-54
2023/12/06 01:39:21;;;;;;;1.73;1.23;;;;;;;4.50;100.00;96255.66;5075007;28;20251;-53
2023/12/06 01:41:50;;;;;;;2.67;1.07;;;;;;;4.46;100.00;96250.81;5074878;28;20210;-54
2023/12/06 01:44:17;;;;;;;1.70;0.93;;;;;;;4.43;100.00;96248.38;5075909;28;20527;-54
2023/12/06 01:46:44;;;;;;;2.30;1.20;;;;;;;4.51;100.00;96253.88;5084281;28;20204;-54
2023/12/06 01:49:11;;;;;;;3.47;1.53;;;;;;;4.47;100.00;96255.91;5074825;28;20222;-54
2023/12/06 01:51:39;;;;;;;2.47;1.10;;;;;;;4.50;100.00;96247.81;5074755;28;20301;-54
2023/12/06 01:54:06;;;;;;;2.63;1.10;;;;;;;4.58;100.00;96251.63;5072641;28;20655;-54
2023/12/06 01:56:33;;;;;;;3.97;1.23;;;;;;;4.47;100.00;96257.69;5074123;28;20704;-54
2023/12/06 01:59:00;;;;;;;2.90;1.30;;;;;;;4.45;100.00;96254.34;5062126;28;20209;-54
2023/12/06 02:01:26;;;;;;;3.53;1.47;;;;;;;4.53;100.00;96261.63;5074229;28;20244;-54
2023/12/06 02:03:53;;;;;;;2.87;1.30;;;;;;;4.63;100.00;96257.38;5063144;28;20217;-53
2023/12/06 02:06:19;;;;;;;1.73;0.83;;;;;;;4.57;100.00;96265.69;5078245;28;20281;-52
2023/12/06 02:08:48;;;;;;;2.17;1.17;;;;;;;4.57;100.00;96266.50;5078629;28;20206;-55
2023/12/06 02:11:14;;;;;;;2.63;1.13;;;;;;;4.59;100.00;96269.03;5078037;28;20216;-53
2023/12/06 02:13:41;;;;;;;1.13;0.97;;;;;;;4.59;100.00;96275.09;5077851;28;20210;-54
2023/12/06 02:16:08;;;;;;;2.43;1.13;;;;;;;4.73;100.00;96276.66;5077904;28;20218;-52
2023/12/06 02:18:35;;;;;;;2.03;1.10;;;;;;;4.64;100.00;96270.34;5077840;28;20722;-54
2023/12/06 02:21:02;;;;;;;3.13;1.10;;;;;;;4.71;100.00;96262.88;5077706;28;20234;-52
2023/12/06 02:23:31;;;;;;;3.33;1.27;;;;;;;4.70;100.00;96275.13;5078500;28;20718;-54
2023/12/06 02:26:02;;;;;;;1.83;1.20;;;;;;;4.63;100.00;96273.94;5079237;28;20294;-54
2023/12/06 02:28:29;;;;;;;4.00;1.27;;;;;;;4.70;100.00;96277.75;5077962;28;20677;-53
2023/12/06 02:30:55;;;;;;;2.30;1.07;;;;;;;4.58;100.00;96276.03;5077663;28;20206;-53
2023/12/06 02:33:22;;;;;;;3.30;1.10;;;;;;;4.65;100.00;96271.16;5077419;28;20297;-54
2023/12/06 02:35:52;;;;;;;3.43;0.93;;;;;;;4.59;100.00;96269.03;5077459;28;20214;-53
2023/12/06 02:38:20;;;;;;;2.67;1.23;;;;;;;4.57;100.00;96269.13;5077393;28;20217;-53
2023/12/06 02:40:47;;;;;;;1.07;0.83;;;;;;;4.68;100.00;96269.16;5078408;28;20698;-53
2023/12/06 02:43:18;;;;;;;2.83;1.00;;;;;;;4.64;100.00;96270.34;5079249;28;20221;-53
2023/12/06 02:45:46;;;;;;;1.73;1.03;;;;;;;4.60;100.00;96268.09;5079499;28;20220;-53
2023/12/06 02:48:12;;;;;;;3.97;1.00;;;;;;;4.53;100.00;96270.34;5065694;28;20203;-54
2023/12/06 02:50:39;;;;;;;5.23;1.53;;;;;;;4.58;100.00;96273.44;5077351;28;20238;-54
2023/12/06 02:53:06;;;;;;;2.30;1.30;;;;;;;4.64;100.00;96275.56;5076885;28;20215;-54
2023/12/06 02:55:32;;;;;;;1.97;0.90;;;;;;;4.58;100.00;96280.44;5076938;28;20230;-54
2023/12/06 02:57:59;;;;;;;3.03;1.60;;;;;;;4.58;100.00;96281.28;5077735;28;20602;-54
2023/12/06 03:00:27;;;;;;;1.93;1.10;;;;;;;4.60;100.00;96279.41;5079661;28;20542;-53
2023/12/06 03:02:54;;;;;;;3.13;1.23;;;;;;;4.55;100.00;96280.66;5078477;28;20301;-54
2023/12/06 03:05:20;;;;;;;6.63;1.33;;;;;;;4.47;100.00;96281.25;5081721;28;20228;-54
2023/12/06 03:07:47;;;;;;;5.43;1.37;;;;;;;4.46;100.00;96271.75;5082228;28;20226;-54
2023/12/06 03:10:13;;;;;;;2.20;1.20;;;;;;;4.57;100.00;96279.59;5078785;28;20194;-52
2023/12/06 03:12:40;;;;;;;2.97;1.10;;;;;;;4.62;100.00;96282.72;5087674;28;20544;-54
2023/12/06 03:15:07;;;;;;;2.40;1.00;;;;;;;4.63;100.00;96284.41;5081133;28;20290;-54
2023/12/06 03:17:35;;;;;;;1.90;1.23;;;;;;;4.60;100.00;96286.41;5081768;28;20236;-54
2023/12/06 03:20:03;;;;;;;2.63;1.00;;;;;;;4.57;100.00;96297.13;5076369;28;20207;-53
2023/12/06 03:22:29;;;;;;;1.40;1.20;;;;;;;4.53;100.00;96291.28;5075451;28;20225;-53
2023/12/06 03:24:56;;;;;;;1.33;0.87;;;;;;;4.52;100.00;96297.47;5088062;28;20199;-52
2023/12/06 03:27:22;;;;;;;3.90;1.07;;;;;;;4.51;100.00;96293.16;5075368;28;20646;-53
2023/12/06 03:29:49;;;;;;;3.43;1.30;;;;;;;4.47;100.00;96291.72;5077896;28;20690;-52
2023/12/06 03:32:16;;;;;;;3.00;1.50;;;;;;;4.44;100.00;96286.72;5077271;28;20206;-54
2023/12/06 03:34:44;;;;;;;2.17;1.00;;;;;;;4.49;100.00;96289.84;5103651;28;20258;-54
2023/12/06 03:37:10;;;;;;;1.30;1.03;;;;;;;4.38;100.00;96288.03;5095008;28;20308;-54
2023/12/06 03:39:37;;;;;;;3.87;1.53;;;;;;;4.35;100.00;96292.66;5096655;28;20238;-54
2023/12/06 03:42:04;;;;;;;3.73;1.33;;;;;;;4.36;100.00;96286.44;5083010;28;20246;-52
2023/12/06 03:44:31;;;;;;;1.83;1.10;;;;;;;4.37;100.00;96293.34;5084165;28;20209;-52
2023/12/06 03:46:58;;;;;;;2.77;1.40;;;;;;;4.44;100.00;96289.34;5077015;28;20395;-52
2023/12/06 03:49:24;;;;;;;3.80;1.23;;;;;;;4.28;100.00;96283.56;5064749;28;20284;-52
2023/12/06 03:51:52;;;;;;;2.20;1.00;;;;;;;4.31;100.00;96285.97;5075951;28;20206;-55
2023/12/06 03:54:22;;;;;;;1.33;1.23;;;;;;;4.28;100.00;96278.34;5074992;28;20368;-53
2023/12/06 03:56:50;;;;;;;2.03;1.00;;;;;;;4.23;100.00;96285.69;5075486;28;20237;-52
2023/12/06 03:59:16;;;;;;;1.80;1.10;;;;;;;4.20;100.00;96291.16;5075077;28;20685;-54
2023/12/06 04:01:43;;;;;;;1.57;1.20;;;;;;;4.18;100.00;96288.63;5008807;28;1900222;-54
2023/12/06 04:04:12;;;;;;;1.77;1.40;;;;;;;4.18;100.00;96287.81;5076534;28;20206;-54
2023/12/06 04:06:39;;;;;;;1.80;1.20;;;;;;;4.26;100.00;96282.84;5076375;28;20236;-53
2023/12/06 04:09:07;;;;;;;1.53;1.20;;;;;;;4.29;100.00;96285.22;5075890;28;20194;-54
2023/12/06 04:11:33;;;;;;;2.33;1.30;;;;;;;4.27;100.00;96284.53;5076088;28;20202;-52
2023/12/06 04:14:00;;;;;;;2.03;1.60;;;;;;;4.28;100.00;96280.97;5076112;28;20210;-54
2023/12/06 04:16:26;;;;;;;2.23;1.07;;;;;;;4.26;100.00;96286.28;5076630;28;20621;-52
2023/12/06 04:18:53;;;;;;;0.90;0.90;;;;;;;4.33;100.00;96290.13;5076331;28;20221;-54
2023/12/06 04:21:19;;;;;;;1.77;1.07;;;;;;;4.31;100.00;96284.19;5076919;28;20224;-54
2023/12/06 04:23:47;;;;;;;1.80;1.13;;;;;;;4.27;100.00;96297.59;5076459;28;20550;-54
2023/12/06 04:26:15;;;;;;;2.00;1.27;;;;;;;4.30;100.00;96289.53;5077239;28;20240;-52
2023/12/06 04:28:42;;;;;;;2.80;1.30;;;;;;;4.34;100.00;96294.44;5082645;28;20202;-54
2023/12/06 04:31:11;;;;;;;2.37;1.10;;;;;;;4.25;100.00;96296.91;5075707;28;20619;-53
2023/12/06 04:33:38;;;;;;;1.27;0.97;;;;;;;4.30;100.00;96300.00;5081791;28;20684;-54
2023/12/06 04:36:05;;;;;;;2.67;1.50;;;;;;;4.33;100.00;96295.38;5076270;28;20214;-54
2023/12/06 04:38:32;;;;;;;1.20;1.10;;;;;;;4.31;100.00;96304.28;5084891;28;20226;-55
2023/12/06 04:40:59;;;;;;;1.20;0.90;;;;;;;4.32;100.00;96311.19;5077811;28;20850;-55
2023/12/06 04:43:27;;;;;;;1.67;1.23;;;;;;;4.28;100.00;96312.38;5075047;28;20206;-54
2023/12/06 04:45:53;;;;;;;3.80;1.30;;;;;;;4.24;100.00;96313.53;5084165;28;20211;-54
2023/12/06 04:48:21;;;;;;;1.63;0.93;;;;;;;4.39;100.00;96313.22;5074977;28;20198;-55
2023/12/06 04:50:48;;;;;;;3.57;1.17;;;;;;;4.34;100.00;96312.75;5075098;28;20561;-53
2023/12/06 04:53:14;;;;;;;2.80;1.13;;;;;;;4.32;100.00;96321.66;5074792;28;20206;-55
2023/12/06 04:55:41;;;;;;;2.67;1.43;;;;;;;4.36;100.00;96318.69;5075909;28;20206;-53
2023/12/06 04:58:08;;;;;;;1.13;1.03;;;;;;;4.38;100.00;96315.97;5075208;28;20226;-52
2023/12/06 05:00:36;;;;;;;2.83;0.90;;;;;;;4.39;100.00;96323.69;5076056;28;20208;-54
2023/12/06 05:03:03;;;;;;;1.17;0.83;;;;;;;4.37;100.00;96323.00;5074511;28;20250;-54
2023/12/06 05:05:29;;;;;;;1.30;1.20;;;;;;;4.43;100.00;96324.31;5075301;28;20297;-54
2023/12/06 05:07:56;;;;;;;1.67;1.00;;;;;;;4.40;100.00;96320.13;5077626;28;20208;-53
2023/12/06 05:10:23;;;;;;;2.37;1.23;;;;;;;4.35;100.00;96318.81;5086403;28;20637;-54
2023/12/06 05:12:49;;;;;;;1.53;1.00;;;;;;;4.28;100.00;96314.97;5078735;28;20210;-53
2023/12/06 05:15:18;;;;;;;2.83;1.00;;;;;;;4.28;100.00;96320.22;5076287;28;20541;-54
2023/12/06 05:17:47;;;;;;;3.07;1.37;;;;;;;4.21;100.00;96322.47;5076440;28;20679;-53
2023/12/06 05:20:16;;;;;;;2.43;1.20;;;;;;;4.32;100.00;96324.28;5079910;28;20203;-54
2023/12/06 05:22:42;;;;;;;1.10;1.00;;;;;;;4.21;100.00;96335.53;5074188;28;20245;-55
2023/12/06 05:25:09;;;;;;;1.53;1.10;;;;;;;4.26;100.00;96327.34;5076012;28;20234;-54
2023/12/06 05:27:36;;;;;;;2.27;1.27;;;;;;;4.21;100.00;96340.78;5074358;28;20662;-53
2023/12/06 05:30:03;;;;;;;1.90;1.07;;;;;;;4.18;100.00;96334.94;5074910;28;20228;-53
2023/12/06 05:32:29;;;;;;;3.77;1.50;;;;;;;4.17;100.00;96334.09;5075050;28;20645;-54
2023/12/06 05:34:57;;;;;;;1.43;1.10;;;;;;;4.13;100.00;96329.19;5074276;28;20206;-54
2023/12/06 05:37:24;;;;;;;1.17;1.07;;;;;;;4.16;100.00;96331.56;5073818;28;20230;-54
2023/12/06 05:39:50;;;;;;;1.97;1.10;;;;;;;4.14;100.00;96339.56;5074372;28;20216;-52
2023/12/06 05:42:17;;;;;;;3.27;1.37;;;;;;;4.21;100.00;96334.69;5076378;28;20198;-53
2023/12/06 05:44:45;;;;;;;2.20;1.00;;;;;;;4.22;100.00;96331.13;5077078;28;20297;-54
2023/12/06 05:47:12;;;;;;;1.60;1.30;;;;;;;4.22;100.00;96328.50;5072337;28;20282;-52
2023/12/06 05:49:40;;;;;;;2.43;1.03;;;;;;;4.17;100.00;96334.09;5074557;28;20203;-53
2023/12/06 05:52:08;;;;;;;1.40;1.07;;;;;;;4.25;100.00;96329.09;5072203;28;20198;-52
2023/12/06 05:54:34;;;;;;;2.53;1.20;;;;;;;4.24;100.00;96335.31;5073910;28;20202;-55
2023/12/06 05:57:01;;;;;;;2.13;1.03;;;;;;;4.26;100.00;96327.34;5074703;28;20213;-53
2023/12/06 05:59:28;;;;;;;0.77;0.70;;;;;;;4.19;100.00;96326.94;5074689;28;20237;-53
2023/12/06 06:01:56;;;;;;;1.73;0.90;;;;;;;4.22;100.00;96341.59;5074409;28;20570;-52
2023/12/06 06:04:23;;;;;;;2.87;1.00;;;;;;;4.20;100.00;96338.25;5080115;28;20297;-54
2023/12/06 06:06:51;;;;;;;2.47;1.10;;;;;;;4.22;100.00;96352.88;5091273;28;20234;-54
2023/12/06 06:09:21;;;;;;;1.10;0.90;;;;;;;4.15;100.00;96341.19;5092665;28;20242;-54
2023/12/06 06:11:48;;;;;;;0.77;0.70;;;;;;;4.21;100.00;96334.69;5089976;28;20230;-53
2023/12/06 06:14:13;;;;;;;2.37;1.10;;;;;;;4.18;100.00;96340.97;5079812;28;20221;-53
2023/12/06 06:16:40;;;;;;;3.20;1.43;;;;;;;4.18;100.00;96346.22;5085903;28;20206;-54
2023/12/06 06:19:07;;;;;;;2.00;0.80;;;;;;;4.23;100.00;96335.41;5075514;28;20236;-53
2023/12/06 06:21:33;;;;;;;2.30;1.00;;;;;;;4.25;100.00;96341.38;5075690;28;20232;-55
2023/12/06 06:24:00;;;;;;;2.50;1.07;;;;;;;4.24;100.00;96350.19;5077341;28;20289;-53
2023/12/06 06:26:28;;;;;;;2.60;1.17;;;;;;;4.26;100.00;96348.28;5072048;28;20211;-54
2023/12/06 06:28:55;;;;;;;3.20;0.90;;;;;;;4.25;100.00;96346.63;5071459;28;20530;-53
2023/12/06 06:31:21;;;;;;;2.10;1.13;;;;;;;4.24;100.00;96347.56;5073357;28;20289;-52
2023/12/06 06:33:48;;;;;;;2.90;0.73;;;;;;;4.21;100.00;96347.78;5070584;28;20293;-53
2023/12/06 06:36:15;;;;;;;1.83;1.20;;;;;;;4.20;100.00;96348.72;5073272;28;20206;-61
2023/12/06 06:38:42;;;;;;;1.43;0.90;;;;;;;4.29;100.00;96348.03;5072222;28;20223;-54
2023/12/06 06:41:09;;;;;;;2.03;1.23;;;;;;;4.36;100.00;96349.25;5077246;28;20291;-54
2023/12/06 06:43:37;;;;;;;1.67;1.30;;;;;;;4.32;100.00;96353.88;5081164;28;20643;-54
2023/12/06 06:46:03;;;;;;;0.80;0.70;;;;;;;4.28;100.00;96356.88;5078169;28;20203;-55
2023/12/06 06:48:31;;;;;;;1.80;0.83;;;;;;;4.30;100.00;96360.19;5074584;28;20203;-55
2023/12/06 06:50:57;;;;;;;2.40;1.40;;;;;;;4.38;100.00;96363.09;5076950;28;20202;-53
2023/12/06 06:53:24;;;;;;;3.30;1.40;;;;;;;4.35;100.00;96363.31;5076840;28;20203;-52
2023/12/06 06:55:50;;;;;;;2.20;1.03;;;;;;;4.32;100.00;96377.44;5077949;28;20210;-52
2023/12/06 06:58:18;;;;;;;5.80;1.87;;;;;;;4.39;100.00;96375.25;5076894;28;20227;-54
2023/12/06 07:00:46;;;;;;;2.30;1.23;;;;;;;4.41;100.00;96376.78;5077616;28;20206;-53
2023/12/06 07:03:14;;;;;;;1.63;1.07;;;;;;;4.45;100.00;96375.63;5076811;28;20236;-54
2023/12/06 07:05:41;;;;;;;1.77;1.60;;;;;;;4.40;100.00;96376.88;5077336;28;20207;-52
2023/12/06 07:08:09;;;;;;;2.70;1.70;;;;;;;4.30;100.00;96386.38;5076748;28;20211;-53
2023/12/06 07:10:38;;;;;;;4.67;1.90;;;;;;;4.38;100.00;96382.25;5076903;28;20238;-54
2023/12/06 07:13:05;;;;;;;2.83;1.60;;;;;;;4.37;100.00;96384.97;5076839;28;20584;-54
2023/12/06 07:15:32;;;;;;;1.83;1.37;;;;;;;4.39;100.00;96390.94;5077070;28;20210;-55
2023/12/06 07:17:59;;;;;;;4.60;1.83;;;;;;;4.35;100.00;96397.34;5076951;28;20227;-54
2023/12/06 07:20:26;;;;;;;3.47;2.00;;;;;;;4.36;100.00;96391.97;5077258;28;20206;-54
2023/12/06 07:22:54;;;;;;;2.30;1.40;;;;;;;4.33;100.00;96392.22;5076607;28;20218;-52
2023/12/06 07:25:21;;;;;;;1.83;1.73;;;;;;;4.42;100.00;96395.97;5076906;28;20294;-53
2023/12/06 07:27:50;;;;;;;1.83;1.50;;;;;;;4.46;100.00;96402.66;5076551;28;20199;-53
2023/12/06 07:30:17;;;;;;;4.90;1.70;;;;;;;4.45;100.00;96400.97;5076729;28;20210;-54
2023/12/06 07:32:44;;;;;;;3.37;1.80;;;;;;;4.48;100.00;96400.75;5077825;28;20210;-53
2023/12/06 07:35:12;;;;;;;3.93;1.83;;;;;;;4.50;100.00;96402.28;5078748;28;20206;-53
2023/12/06 07:37:39;;;;;;;1.90;1.80;;;;;;;4.49;100.00;96418.13;5078174;28;20667;-53
2023/12/06 07:40:09;;;;;;;5.23;1.73;;;;;;;4.50;100.00;96425.84;5078906;28;20301;-52
2023/12/06 07:42:36;;;;;;;1.97;1.57;;;;;;;4.55;100.00;96420.28;5072617;28;20206;-54
2023/12/06 07:45:03;;;;;;;1.53;1.43;;;;;;;4.60;100.00;96423.41;5087933;28;20269;-54
2023/12/06 07:47:29;;;;;;;2.73;1.70;;;;;;;4.62;100.00;96426.75;5070209;28;20214;-53
2023/12/06 07:49:56;;;;;;;3.40;2.10;;;;;;;4.67;100.00;96427.25;5070531;28;20202;-52
2023/12/06 07:52:25;;;;;;;2.67;1.67;;;;;;;4.63;100.00;96430.22;5076055;28;20202;-53
2023/12/06 07:54:53;;;;;;;3.70;1.87;;;;;;;4.61;100.00;96432.09;5077743;28;20244;-53
2023/12/06 07:57:23;;;;;;;3.83;2.10;;;;;;;4.65;100.00;96423.06;5065775;28;20236;-53
2023/12/06 08:00:00;;;;;;;3.53;1.60;;;;;;;4.64;100.00;96427.47;5079000;28;20195;-52
2023/12/06 08:02:26;;;;;;;2.17;1.70;;;;;;;4.60;100.00;96427.81;5075702;28;20266;-54
2023/12/06 08:04:53;;;;;;;3.53;1.53;;;;;;;4.60;100.00;96436.53;5077045;28;20213;-52
2023/12/06 08:07:20;;;;;;;2.80;1.77;;;;;;;4.67;100.00;96448.22;5076358;28;20644;-52
2023/12/06 08:09:49;;;;;;;2.90;2.03;;;;;;;4.71;100.00;96444.41;5075938;28;20202;-53
2023/12/06 08:12:16;;;;;;;3.70;2.30;;;;;;;4.86;100.00;96447.69;5080366;28;20198;-55
2023/12/06 08:14:44;;;;;;;2.10;1.70;;;;;;;4.80;100.00;96448.97;5078980;28;20228;-52
2023/12/06 08:17:11;;;;;;;2.80;2.00;;;;;;;4.90;100.00;96446.50;5077129;28;20207;-52
2023/12/06 08:19:38;;;;;;;2.07;1.70;;;;;;;4.84;100.00;96450.44;5085556;28;20524;-53
2023/12/06 08:22:07;;;;;;;3.23;1.77;;;;;;;4.93;100.00;96444.50;5088518;28;20540;-54
2023/12/06 08:24:34;;;;;;;1.90;1.50;;;;;;;4.93;100.00;96447.13;5075439;28;20206;-54
2023/12/06 08:27:02;;;;;;;2.10;1.40;;;;;;;4.96;100.00;96454.75;5073629;28;20214;-52
2023/12/06 08:29:32;;;;;;;4.03;1.60;;;;;;;4.92;100.00;96448.06;5077429;28;20663;-52
2023/12/06 08:31:58;;;;;;;2.93;1.87;;;;;;;4.94;100.00;96446.19;5077238;28;20285;-52
2023/12/06 08:34:26;;;;;;;2.60;1.77;;;;;;;5.06;100.00;96452.31;5084775;28;20198;-54
2023/12/06 08:36:53;;;;;;;2.90;1.83;;;;;;;5.00;100.00;96442.25;5088882;28;20209;-55
2023/12/06 08:39:20;;;;;;;1.70;1.60;;;;;;;4.99;100.00;96444.03;5090785;28;20250;-52
2023/12/06 08:41:47;;;;;;;2.07;1.33;;;;;;;5.15;100.00;96450.75;5079874;28;20203;-51
2023/12/06 08:44:15;;;;;;;3.03;1.50;;;;;;;5.22;100.00;96452.81;5075998;28;20597;-53
2023/12/06 08:46:42;;;;;;;1.53;1.20;;;;;;;5.29;100.00;96450.56;5080025;28;20300;-52
2023/12/06 08:49:11;;;;;;;2.30;1.77;;;;;;;5.41;100.00;96447.88;5075336;28;20623;-51
2023/12/06 08:51:38;;;;;;;1.60;1.50;;;;;;;5.44;100.00;96442.38;5075922;28;20198;-53
2023/12/06 08:54:05;;;;;;;2.27;1.40;;;;;;;5.53;100.00;96445.28;5075691;28;20199;-52
2023/12/06 08:56:32;;;;;;;3.10;1.50;;;;;;;5.67;100.00;96445.06;5076401;28;20256;-53
2023/12/06 08:58:58;;;;;;;2.80;1.20;;;;;;;6.16;100.00;96449.97;5072961;28;20233;-53
2023/12/06 09:01:26;;;;;;;1.33;1.20;;;;;;;6.62;100.00;96444.50;5086933;28;20329;-52
2023/12/06 09:03:53;;;;;;;3.30;1.73;;;;;;;7.32;99.62;96444.81;5078697;28;20202;-52
2023/12/06 09:06:20;;;;;;;1.33;1.23;;;;;;;7.91;93.25;96437.13;5077260;28;20627;-52
2023/12/06 09:08:46;;;;;;;2.17;1.97;;;;;;;8.43;85.01;96447.47;5075805;28;20529;-51
2023/12/06 09:11:19;;;;;;;2.30;1.83;;;;;;;8.66;83.07;96440.16;5081291;28;20212;-52
2023/12/06 09:13:46;;;;;;;2.60;1.67;;;;;;;8.94;82.19;96441.16;5077170;28;20647;-52
2023/12/06 09:16:13;;;;;;;3.33;1.57;;;;;;;8.90;82.93;96450.31;5079153;28;20210;-52
2023/12/06 09:18:41;;;;;;;2.27;1.10;;;;;;;9.21;81.18;96436.03;5076026;28;20241;-51
2023/12/06 09:21:09;;;;;;;1.50;1.33;;;;;;;9.42;80.56;96441.19;5077482;28;20206;-52
2023/12/06 09:23:36;;;;;;;3.67;1.23;;;;;;;9.03;80.77;96442.16;5075002;28;20280;-52
2023/12/06 09:26:03;;;;;;;1.57;1.30;;;;;;;8.87;81.28;96445.31;5074962;28;20297;-52
2023/12/06 09:28:29;;;;;;;2.00;1.33;;;;;;;8.45;82.72;96442.91;5083452;28;20221;-53
2023/12/06 09:30:56;;;;;;;1.90;1.00;;;;;;;8.01;83.26;96441.47;5074913;28;20718;-51
2023/12/06 09:33:22;;;;;;;1.13;1.03;;;;;;;7.69;87.46;96453.91;5074738;28;20293;-52
2023/12/06 09:35:51;;;;;;;2.67;1.23;;;;;;;7.63;86.95;96457.06;5075191;28;20210;-53
2023/12/06 09:38:17;;;;;;;2.33;1.53;;;;;;;7.27;87.84;96460.13;5075333;28;20279;-53
2023/12/06 09:40:43;;;;;;;2.13;1.33;;;;;;;6.98;91.24;96468.63;5075806;28;20274;-53
2023/12/06 09:43:12;;;;;;;2.13;1.30;;;;;;;6.97;91.15;96472.25;5079048;28;20234;-52
2023/12/06 09:45:38;;;;;;;1.63;1.30;;;;;;;6.74;93.47;96470.63;5075421;28;20202;-58
2023/12/06 09:48:05;;;;;;;3.23;1.37;;;;;;;6.75;92.96;96476.72;5075130;28;20202;-52
2023/12/06 09:50:32;;;;;;;1.67;1.23;;;;;;;6.59;94.03;96471.84;5074980;28;20213;-51
2023/12/06 09:53:01;;;;;;;2.20;1.50;;;;;;;6.47;95.88;96478.09;5074611;28;20588;-51
2023/12/06 09:55:30;;;;;;;1.60;1.07;;;;;;;6.43;95.98;96474.03;5080130;28;20262;-53
2023/12/06 09:57:56;;;;;;;2.27;1.50;;;;;;;6.44;96.41;96478.34;5080929;28;20298;-59
2023/12/06 10:00:23;;;;;;;1.70;1.43;;;;;;;6.36;95.77;96471.06;5074943;28;20258;-52
2023/12/06 10:02:51;;;;;;;2.87;1.50;;;;;;;6.40;98.84;96475.13;5075771;28;20771;-52
2023/12/06 10:05:18;;;;;;;2.00;1.47;;;;;;;6.30;95.49;96475.97;5074873;28;20566;-52
2023/12/06 10:07:45;;;;;;;1.50;1.40;;;;;;;6.36;97.59;96480.75;5074586;28;20276;-52
2023/12/06 10:10:15;;;;;;;1.40;1.23;;;;;;;6.26;96.08;96482.41;5075676;28;20214;-51
2023/12/06 10:12:48;;;;;;;1.70;1.50;;;;;;;6.28;96.81;96477.88;5076142;28;20580;-52
2023/12/06 10:15:16;;;;;;;1.93;1.73;;;;;;;6.29;96.39;96476.91;5068519;28;20206;-52
2023/12/06 10:17:42;;;;;;;0.97;0.90;;;;;;;6.24;96.89;96471.19;5077135;28;20254;-51
2023/12/06 10:20:09;;;;;;;2.20;1.50;;;;;;;6.13;96.71;96474.66;5078155;28;20312;-52
2023/12/06 10:22:36;;;;;;;1.73;1.50;;;;;;;6.15;97.18;96477.16;5081241;28;20206;-51
2023/12/06 10:25:05;;;;;;;1.93;1.20;;;;;;;6.11;97.52;96479.19;5087801;28;20293;-52
2023/12/06 10:27:34;;;;;;;1.63;1.53;;;;;;;5.99;99.24;96483.59;5082381;28;20273;-51
2023/12/06 10:30:01;;;;;;;1.40;1.30;;;;;;;6.07;99.20;96485.63;5080482;28;20682;-51
2023/12/06 10:32:30;;;;;;;3.60;1.20;;;;;;;6.11;99.61;96475.75;5077100;28;20701;-53
2023/12/06 10:34:59;;;;;;;1.07;1.07;;;;;;;6.08;99.25;96479.44;5078014;28;20210;-51
2023/12/06 10:37:28;;;;;;;2.93;1.60;;;;;;;6.06;99.53;96475.28;5080919;28;20699;-51
2023/12/06 10:39:59;;;;;;;3.83;1.40;;;;;;;6.03;100.00;96478.13;5084027;28;20230;-51
2023/12/06 10:42:32;;;;;;;1.80;1.53;;;;;;;6.13;100.00;96479.09;5085375;28;20199;-51
2023/12/06 10:45:03;;;;;;;6.17;1.50;;;;;;;6.12;100.00;96470.38;5087399;28;20269;-51
2023/12/06 10:47:30;;;;;;;2.70;1.43;;;;;;;6.17;100.00;96472.63;5072429;28;20709;-52
2023/12/06 10:49:59;;;;;;;1.37;1.17;;;;;;;6.23;100.00;96477.41;5079631;28;20658;-51
2023/12/06 10:52:30;;;;;;;1.80;1.20;;;;;;;6.20;99.94;96469.78;5079173;28;20203;-52
2023/12/06 10:54:57;;;;;;;2.13;1.23;;;;;;;6.22;100.00;96475.72;5080905;28;20283;-53
2023/12/06 10:57:24;;;;;;;1.63;1.33;;;;;;;6.25;100.00;96473.69;5079201;28;20210;-53
2023/12/06 10:59:52;;;;;;;2.93;1.43;;;;;;;6.21;99.98;96474.06;5079530;28;20248;-53
2023/12/06 11:02:21;;;;;;;1.83;1.60;;;;;;;6.17;100.00;96470.00;5078072;28;20671;-52
2023/12/06 11:04:51;;;;;;;2.23;1.60;;;;;;;6.24;100.00;96479.06;5081960;28;20341;-55
2023/12/06 11:07:26;;;;;;;1.97;1.27;;;;;;;6.17;100.00;96468.22;5071417;28;20623;-53
2023/12/06 11:10:02;;;;;;;3.30;2.07;;;;;;;6.16;100.00;96474.44;5086800;28;20202;-52
2023/12/06 11:12:38;;;;;;;2.10;1.53;;;;;;;6.23;100.00;96473.00;5080561;28;20210;-52
2023/12/06 11:15:19;;;;;;;1.77;1.30;;;;;;;6.12;100.00;96473.00;5077252;28;20198;-53
2023/12/06 11:17:53;;;;;;;1.83;1.60;;;;;;;6.05;100.00;96481.47;5077342;28;20212;-53
2023/12/06 11:20:20;;;;;;;1.83;1.43;;;;;;;5.93;100.00;96483.25;5065821;28;20210;-52
2023/12/06 11:22:47;;;;;;;3.30;1.80;;;;;;;5.93;100.00;96489.34;5076547;28;20599;-53
2023/12/06 11:25:14;;;;;;;3.57;1.60;;;;;;;5.91;100.00;96483.38;5077555;28;20540;-52
2023/12/06 11:27:42;;;;;;;1.57;1.47;;;;;;;5.95;100.00;96487.41;5077413;28;20260;-52
2023/12/06 11:30:16;;;;;;;1.97;1.87;;;;;;;5.96;100.00;96486.47;5077965;28;20198;-53
2023/12/06 11:32:43;;;;;;;3.17;1.63;;;;;;;6.02;100.00;96482.56;5080511;28;20214;-54
2023/12/06 11:35:12;;;;;;;3.30;1.77;;;;;;;5.88;100.00;96482.78;5078162;28;20214;-53